Time;durP1;ratioP1;P1;durP2;ratioP2;P2;SDS_P1;SDS_P2;PMS_P1;PMS_P2;Temp;Humidity;BMP_temperature;BMP_pressure;BME280_temperature;BME280_humidity;BME280_pressure;Samples;Min_cycle;Max_cycle;Signal;HPM_P1;HPM_P2
2022/05/31 00:00:34;;;;;;;3.63;1.40;;;;;;;20.89;88.04;101336.38;2072602;28;20188;-65
2022/05/31 00:01:36;;;;;;;4.87;1.27;;;;;;;20.89;88.03;101323.13;2072965;28;20216;-66
2022/05/31 00:02:37;;;;;;;5.17;1.50;;;;;;;20.94;87.78;101325.22;2073082;28;20452;-66
2022/05/31 00:03:38;;;;;;;3.13;1.27;;;;;;;20.88;88.10;101327.16;2063509;28;20429;-66
2022/05/31 00:04:38;;;;;;;2.00;1.40;;;;;;;20.81;88.14;101326.75;2064338;28;20494;-66
2022/05/31 00:05:39;;;;;;;3.13;1.20;;;;;;;20.73;88.35;101315.09;2072692;28;20182;-66
2022/05/31 00:06:39;;;;;;;2.20;1.47;;;;;;;20.40;88.35;101272.28;2073094;28;20248;-66
2022/05/31 00:07:41;;;;;;;4.27;1.40;;;;;;;20.38;88.76;101268.41;2072916;28;20562;-66
2022/05/31 00:08:41;;;;;;;4.30;1.40;;;;;;;20.71;88.32;101314.03;2072897;28;20178;-65
2022/05/31 00:09:42;;;;;;;3.17;1.50;;;;;;;20.72;88.17;101319.19;2072957;28;20423;-66
2022/05/31 00:10:42;;;;;;;4.57;1.60;;;;;;;20.72;88.40;101322.00;2072688;28;20224;-66
2022/05/31 00:11:44;;;;;;;3.80;1.40;;;;;;;20.68;88.45;101318.59;2063878;28;20708;-66
2022/05/31 00:12:45;;;;;;;6.43;1.50;;;;;;;20.71;88.33;101323.28;2064107;28;20811;-66
2022/05/31 00:13:46;;;;;;;4.83;1.50;;;;;;;20.64;88.41;101325.69;2063803;28;21316;-66
2022/05/31 00:14:47;;;;;;;2.93;1.50;;;;;;;20.63;88.70;101324.91;2073004;28;20933;-66
2022/05/31 00:15:47;;;;;;;7.57;1.80;;;;;;;20.63;88.98;101327.72;2071988;28;20604;-66
2022/05/31 00:16:48;;;;;;;3.63;1.50;;;;;;;20.54;89.14;101313.75;2073109;28;20181;-66
2022/05/31 00:17:48;;;;;;;3.20;1.47;;;;;;;20.54;88.93;101329.84;2072728;28;20195;-66
2022/05/31 00:18:49;;;;;;;3.20;1.47;;;;;;;20.53;89.30;101326.25;2072652;28;20316;-65
2022/05/31 00:19:49;;;;;;;4.40;1.57;;;;;;;20.56;89.04;101308.41;2063811;28;20303;-66
2022/05/31 00:20:50;;;;;;;2.80;1.53;;;;;;;20.46;89.08;101292.84;2063600;28;20184;-65
2022/05/31 00:22:05;;;;;;;2.80;1.53;;;;;;;20.49;89.11;101291.09;2072799;28;20178;-66
2022/05/31 00:23:08;;;;;;;3.73;1.47;;;;;;;20.64;89.21;101322.88;2072966;28;20694;-66
2022/05/31 00:24:11;;;;;;;4.47;1.70;;;;;;;20.62;89.71;101325.41;2072246;28;20934;-66
2022/05/31 00:25:12;;;;;;;4.53;1.53;;;;;;;20.55;89.48;101320.94;2072996;28;20443;-66
2022/05/31 00:26:13;;;;;;;3.60;1.50;;;;;;;20.54;89.47;101316.56;2072451;28;20960;-66
2022/05/31 00:27:16;;;;;;;2.63;1.30;;;;;;;20.46;89.78;101323.06;2073001;28;20884;-66
2022/05/31 00:28:16;;;;;;;4.73;1.70;;;;;;;20.15;89.71;101281.25;2072455;28;20181;-66
2022/05/31 00:29:17;;;;;;;3.80;1.80;;;;;;;20.35;90.22;101315.19;2072828;28;20493;-66
2022/05/31 00:30:17;;;;;;;4.17;1.50;;;;;;;20.46;90.39;101335.09;2072452;28;20202;-66
2022/05/31 00:31:18;;;;;;;3.80;1.70;;;;;;;20.44;90.37;101334.81;2072677;28;20685;-66
2022/05/31 00:32:25;;;;;;;4.60;1.73;;;;;;;20.46;90.36;101328.69;2072866;28;20200;-66
2022/05/31 00:33:27;;;;;;;6.80;1.80;;;;;;;20.49;90.41;101330.53;2072218;28;20202;-66
2022/05/31 00:34:28;;;;;;;4.53;1.77;;;;;;;20.46;90.49;101323.06;2072710;28;20877;-66
2022/05/31 00:35:31;;;;;;;4.17;1.63;;;;;;;20.08;90.32;101275.22;2072743;28;20430;-65
2022/05/31 00:36:32;;;;;;;4.27;1.77;;;;;;;20.48;90.72;101326.16;2072849;28;20502;-66
2022/05/31 00:37:33;;;;;;;4.17;1.63;;;;;;;20.54;90.32;101329.84;2072758;28;20955;-66
2022/05/31 00:38:34;;;;;;;4.27;1.80;;;;;;;20.09;89.88;101248.66;2072397;28;20224;-66
2022/05/31 00:39:34;;;;;;;3.77;1.53;;;;;;;20.52;90.15;101332.38;2072774;28;20511;-66
2022/05/31 00:40:36;;;;;;;5.90;2.03;;;;;;;20.54;90.08;101325.00;2063669;28;20287;-66
2022/05/31 00:41:39;;;;;;;3.00;1.80;;;;;;;20.20;89.97;101269.34;2063981;28;20190;-66
2022/05/31 00:43:13;;;;;;;3.37;1.20;;;;;;;20.57;90.24;101331.72;2072874;28;20777;-65
2022/05/31 00:44:19;;;;;;;5.60;1.60;;;;;;;20.56;90.04;101330.13;2047261;29;20485;-65
2022/05/31 00:45:25;;;;;;;6.37;1.80;;;;;;;20.44;90.46;101325.56;2061043;28;20468;-65
2022/05/31 00:46:53;;;;;;;3.33;1.80;;;;;;;20.45;90.48;101330.72;2056568;28;21075;-65
2022/05/31 00:47:55;;;;;;;6.00;1.60;;;;;;;20.44;90.98;101328.38;2067054;28;20436;-65
2022/05/31 00:49:00;;;;;;;4.87;1.40;;;;;;;20.38;91.46;101322.66;2072498;28;20432;-65
2022/05/31 00:50:10;;;;;;;6.53;1.83;;;;;;;20.44;91.72;101334.81;2072600;28;20467;-65
2022/05/31 00:51:14;;;;;;;3.83;1.70;;;;;;;20.40;91.60;101319.34;2072546;28;20456;-65
2022/05/31 00:52:21;;;;;;;2.70;1.80;;;;;;;20.42;91.72;101328.88;2072781;28;20519;-65
2022/05/31 00:53:26;;;;;;;3.97;1.60;;;;;;;20.46;91.57;101325.88;2072367;28;20409;-65
2022/05/31 00:54:29;;;;;;;6.30;1.77;;;;;;;20.36;91.74;101313.16;2072677;28;20428;-65
2022/05/31 00:55:50;;;;;;;4.03;1.90;;;;;;;20.44;91.83;101317.91;2072549;28;20420;-65
2022/05/31 00:56:52;;;;;;;5.23;2.00;;;;;;;20.43;92.02;101318.38;2072832;28;20774;-65
2022/05/31 00:58:07;;;;;;;7.03;1.90;;;;;;;20.20;92.28;101305.13;2072782;28;20942;-65
2022/05/31 00:59:21;;;;;;;4.13;2.00;;;;;;;19.65;92.91;101233.69;2072785;28;20411;-65
2022/05/31 01:00:22;;;;;;;4.10;1.80;;;;;;;20.15;93.35;101328.31;2072360;28;20432;-65
2022/05/31 01:01:24;;;;;;;4.97;1.77;;;;;;;19.99;93.56;101315.44;2072387;28;20427;-65
2022/05/31 01:02:25;;;;;;;4.57;1.83;;;;;;;20.03;94.21;101318.88;2072713;28;20212;-66
2022/05/31 01:03:27;;;;;;;5.67;1.90;;;;;;;20.04;94.21;101325.25;2072215;28;20951;-65
2022/05/31 01:04:56;;;;;;;5.40;1.90;;;;;;;20.10;94.62;101320.53;2072617;28;20447;-65
2022/05/31 01:05:56;;;;;;;6.23;2.33;;;;;;;20.12;94.89;101323.66;2057883;28;20445;-65
2022/05/31 01:06:58;;;;;;;8.33;2.27;;;;;;;20.04;95.50;101311.19;2064120;28;20464;-65
2022/05/31 01:07:58;;;;;;;7.37;2.17;;;;;;;20.04;95.16;101319.63;2072725;28;20686;-65
2022/05/31 01:09:00;;;;;;;5.37;1.90;;;;;;;19.64;95.42;101266.63;2072169;28;20814;-65
2022/05/31 01:10:04;;;;;;;7.57;2.00;;;;;;;20.06;95.08;101342.44;2072703;28;20562;-65
2022/05/31 01:11:05;;;;;;;5.03;1.90;;;;;;;20.06;95.33;101343.22;2072316;28;20424;-65
2022/05/31 01:12:06;;;;;;;4.70;2.30;;;;;;;20.06;95.50;101339.63;2072647;28;20428;-65
2022/05/31 01:13:07;;;;;;;4.30;2.10;;;;;;;20.00;95.43;101335.94;2063703;28;20542;-65
2022/05/31 01:14:10;;;;;;;8.43;2.30;;;;;;;19.07;94.91;101225.75;2063657;28;20431;-65
2022/05/31 01:15:13;;;;;;;8.57;2.20;;;;;;;19.81;94.86;101346.50;2072574;28;20435;-65
2022/05/31 01:16:15;;;;;;;10.60;2.40;;;;;;;19.78;94.74;101339.03;2072593;28;20431;-65
2022/05/31 01:17:21;;;;;;;5.00;2.80;;;;;;;19.65;94.87;101332.09;2064026;28;20524;-65
2022/05/31 01:18:21;;;;;;;7.03;2.40;;;;;;;19.59;95.16;101334.78;2064423;28;20428;-65
2022/05/31 01:20:41;;;;;;;5.53;1.87;;;;;;;19.69;95.42;101332.69;2072416;28;20627;-65
2022/05/31 01:21:41;;;;;;;6.47;2.30;;;;;;;19.68;95.73;101333.94;2072351;28;20429;-65
2022/05/31 01:22:50;;;;;;;6.97;2.00;;;;;;;19.66;95.51;101331.59;2072747;28;20574;-65
2022/05/31 01:24:20;;;;;;;10.27;2.00;;;;;;;19.64;95.73;101342.56;2072172;28;20199;-65
2022/05/31 01:25:32;;;;;;;8.93;2.47;;;;;;;19.67;95.74;101335.19;2059699;28;20444;-65
2022/05/31 01:26:44;;;;;;;8.33;1.90;;;;;;;19.65;95.26;101341.28;2072579;28;20481;-65
2022/05/31 01:27:50;;;;;;;5.27;2.17;;;;;;;19.63;95.79;101340.22;2074121;28;20415;-65
2022/05/31 01:29:21;;;;;;;3.77;1.80;;;;;;;19.63;96.36;101345.84;2073941;28;20412;-65
2022/05/31 01:30:22;;;;;;;5.40;2.10;;;;;;;19.66;96.32;101342.84;2064122;28;20428;-65
2022/05/31 01:31:32;;;;;;;5.30;2.27;;;;;;;19.27;96.27;101287.78;2064861;28;20545;-65
2022/05/31 01:32:37;;;;;;;3.50;2.03;;;;;;;19.67;96.44;101343.63;2074138;28;20168;-65
2022/05/31 01:33:45;;;;;;;4.80;2.23;;;;;;;19.17;96.68;101283.44;2073641;28;20534;-65
2022/05/31 01:34:54;;;;;;;5.53;2.20;;;;;;;19.46;96.69;101345.47;2074104;28;20416;-65
2022/05/31 01:36:05;;;;;;;6.03;2.43;;;;;;;19.45;97.18;101334.72;2073747;28;20471;-65
2022/05/31 01:37:06;;;;;;;4.67;2.43;;;;;;;19.08;97.23;101271.47;2074215;28;20502;-65
2022/05/31 01:38:29;;;;;;;5.40;2.23;;;;;;;19.62;97.19;101350.69;2073793;28;20546;-65
2022/05/31 01:39:37;;;;;;;6.57;1.97;;;;;;;19.65;97.10;101351.78;2073697;28;20431;-65
2022/05/31 01:40:45;;;;;;;13.63;2.40;;;;;;;19.63;96.77;101355.06;2065002;28;20947;-65
2022/05/31 01:42:03;;;;;;;6.73;2.20;;;;;;;19.66;96.95;101356.91;2066024;28;20413;-65
2022/05/31 01:43:03;;;;;;;12.50;2.67;;;;;;;19.64;96.99;101358.63;2074134;28;20404;-65
2022/05/31 01:44:10;;;;;;;6.10;2.10;;;;;;;19.69;96.75;101357.97;2073547;28;20428;-65
2022/05/31 01:45:26;;;;;;;5.57;2.20;;;;;;;19.68;96.65;101357.22;2073936;28;20165;-65
2022/05/31 01:46:33;;;;;;;6.50;2.57;;;;;;;19.53;96.96;101347.94;2065018;28;20474;-65
2022/05/31 01:47:35;;;;;;;5.33;2.60;;;;;;;19.52;96.60;101359.66;2066062;28;20499;-65
2022/05/31 01:48:39;;;;;;;7.57;2.33;;;;;;;19.51;96.70;101350.44;2073777;28;20985;-65
2022/05/31 01:49:44;;;;;;;4.70;2.30;;;;;;;19.46;96.79;101356.72;2073502;28;20829;-65
2022/05/31 01:50:45;;;;;;;7.03;2.40;;;;;;;19.39;97.15;101343.00;2073724;28;20445;-65
2022/05/31 01:51:46;;;;;;;5.67;2.60;;;;;;;19.42;97.04;101356.09;2073598;28;21086;-65
2022/05/31 01:52:48;;;;;;;5.23;2.30;;;;;;;19.11;96.96;101315.47;2073984;28;20921;-65
2022/05/31 01:53:51;;;;;;;7.77;2.70;;;;;;;19.41;97.07;101356.59;2073367;28;20627;-65
2022/05/31 01:54:53;;;;;;;6.77;2.30;;;;;;;19.32;97.24;101348.19;2073946;28;20429;-65
2022/05/31 01:55:54;;;;;;;4.47;2.57;;;;;;;19.37;97.00;101351.13;2073568;28;20423;-65
2022/05/31 01:57:04;;;;;;;6.87;2.10;;;;;;;19.42;97.18;101364.53;2073932;28;20443;-65
2022/05/31 01:58:07;;;;;;;4.17;2.20;;;;;;;19.45;97.13;101355.13;2073913;28;20539;-65
2022/05/31 01:59:09;;;;;;;4.73;2.57;;;;;;;19.44;97.25;101359.22;2073817;28;20460;-65
2022/05/31 02:00:12;;;;;;;5.90;2.20;;;;;;;19.34;97.32;101346.44;2073284;28;20428;-65
2022/05/31 02:01:13;;;;;;;5.40;2.37;;;;;;;19.33;97.44;101349.72;2073573;28;20428;-65
2022/05/31 02:02:16;;;;;;;6.40;2.33;;;;;;;19.36;97.65;101345.97;2073790;28;20427;-65
2022/05/31 02:03:19;;;;;;;7.97;2.80;;;;;;;19.31;97.79;101343.81;2073530;28;20272;-65
2022/05/31 02:04:20;;;;;;;6.60;2.10;;;;;;;19.42;97.94;101361.72;2073811;28;20424;-65
2022/05/31 02:05:20;;;;;;;5.50;2.67;;;;;;;19.45;98.05;101362.81;2065019;28;20461;-65
2022/05/31 02:06:30;;;;;;;5.20;2.70;;;;;;;19.26;97.84;101347.28;2064852;28;20713;-65
2022/05/31 02:07:31;;;;;;;7.37;2.80;;;;;;;19.31;98.16;101339.00;2065027;28;20178;-65
2022/05/31 02:08:33;;;;;;;10.50;2.87;;;;;;;19.47;98.53;101361.09;2064726;28;20431;-65
2022/05/31 02:09:34;;;;;;;6.40;2.97;;;;;;;19.47;98.34;101363.91;2073832;28;20642;-65
2022/05/31 02:10:34;;;;;;;6.67;3.10;;;;;;;19.44;98.10;101364.84;2073333;28;20420;-65
2022/05/31 02:11:35;;;;;;;7.47;2.73;;;;;;;19.42;98.02;101355.31;2073536;28;20218;-65
2022/05/31 02:12:36;;;;;;;7.93;3.00;;;;;;;19.00;98.43;101299.13;2073582;28;20304;-65
2022/05/31 02:13:37;;;;;;;8.33;2.87;;;;;;;19.46;98.37;101379.22;2073338;28;20480;-65
2022/05/31 02:14:39;;;;;;;9.67;2.97;;;;;;;18.96;98.52;101295.69;2065015;28;20593;-65
2022/05/31 02:15:40;;;;;;;11.10;3.57;;;;;;;19.26;98.46;101342.44;2058222;28;20447;-65
2022/05/31 02:16:41;;;;;;;5.57;2.60;;;;;;;19.51;98.53;101378.56;2065866;28;20425;-65
2022/05/31 02:17:41;;;;;;;8.03;2.90;;;;;;;19.54;98.50;101379.66;2065781;28;20992;-65
2022/05/31 02:20:00;;;;;;;6.70;2.43;;;;;;;19.56;98.27;101374.31;2065193;28;20169;-65
2022/05/31 02:21:01;;;;;;;9.83;2.93;;;;;;;19.58;98.24;101381.03;2072054;28;20421;-65
2022/05/31 02:22:05;;;;;;;4.37;2.60;;;;;;;19.56;98.49;101372.28;2073689;28;20219;-65
2022/05/31 02:23:05;;;;;;;6.93;2.90;;;;;;;19.55;97.98;101378.38;2073886;28;20191;-65
2022/05/31 02:24:14;;;;;;;8.00;2.80;;;;;;;19.58;98.03;101374.59;2073182;28;20420;-65
2022/05/31 02:25:15;;;;;;;7.87;2.83;;;;;;;19.63;97.74;101376.75;2065045;28;20237;-65
2022/05/31 02:26:15;;;;;;;4.67;2.93;;;;;;;19.58;97.55;101378.22;2064529;28;20511;-65
2022/05/31 02:27:16;;;;;;;4.70;2.80;;;;;;;19.58;97.50;101374.59;2073728;28;20186;-65
2022/05/31 02:28:16;;;;;;;10.00;2.80;;;;;;;19.60;97.41;101378.50;2073297;28;20182;-65
2022/05/31 02:29:23;;;;;;;4.47;2.63;;;;;;;19.61;97.27;101380.06;2073752;28;20185;-65
2022/05/31 02:30:24;;;;;;;5.80;3.00;;;;;;;19.61;97.49;101382.09;2073167;28;20162;-65
2022/05/31 02:31:24;;;;;;;5.00;3.10;;;;;;;19.05;97.60;101292.06;2064598;28;20439;-65
2022/05/31 02:32:25;;;;;;;5.67;2.73;;;;;;;19.68;97.94;101385.34;2064896;28;20179;-65
2022/05/31 02:33:26;;;;;;;8.23;2.50;;;;;;;19.72;97.87;101385.94;2073202;28;20178;-65
2022/05/31 02:34:30;;;;;;;6.23;2.80;;;;;;;19.72;97.79;101383.13;2064970;28;20187;-65
2022/05/31 02:35:30;;;;;;;6.37;2.93;;;;;;;19.72;97.77;101383.13;2073275;28;20182;-65
2022/05/31 02:36:31;;;;;;;10.00;3.33;;;;;;;19.70;97.75;101384.88;2081167;28;20879;-65
2022/05/31 02:37:32;;;;;;;7.13;3.17;;;;;;;19.18;98.13;101306.72;2073472;28;20173;-65
2022/05/31 02:38:32;;;;;;;8.57;2.87;;;;;;;19.25;98.01;101317.63;2072817;28;20188;-65
2022/05/31 02:39:33;;;;;;;5.53;2.80;;;;;;;19.24;98.35;101311.22;2064716;28;20280;-65
2022/05/31 02:40:33;;;;;;;7.43;3.20;;;;;;;19.70;98.67;101390.50;2072377;28;20243;-65
2022/05/31 02:41:35;;;;;;;6.47;2.97;;;;;;;19.32;98.71;101337.72;2080821;28;20183;-65
2022/05/31 02:42:39;;;;;;;7.57;3.00;;;;;;;19.67;98.79;101397.84;2073759;28;20643;-65
2022/05/31 02:43:40;;;;;;;7.97;3.10;;;;;;;19.70;98.91;101396.88;2073145;28;20431;-65
2022/05/31 02:44:41;;;;;;;5.73;2.93;;;;;;;19.67;98.62;101409.09;2073626;28;20432;-65
2022/05/31 02:45:41;;;;;;;10.17;3.23;;;;;;;19.65;98.70;101405.22;2073211;28;20182;-65
2022/05/31 02:46:42;;;;;;;9.27;3.07;;;;;;;19.60;98.69;101414.28;2073475;28;20940;-65
2022/05/31 02:47:43;;;;;;;8.50;3.43;;;;;;;19.63;98.91;101418.94;2073497;28;20185;-65
2022/05/31 02:48:43;;;;;;;7.57;2.90;;;;;;;19.00;99.01;101332.84;2073267;28;20221;-65
2022/05/31 02:49:45;;;;;;;6.03;2.93;;;;;;;19.64;99.05;101404.41;2073540;28;20260;-65
2022/05/31 02:50:45;;;;;;;6.03;3.40;;;;;;;19.69;98.58;101414.22;2073018;28;20657;-65
2022/05/31 02:51:46;;;;;;;5.40;3.10;;;;;;;19.62;98.81;101417.41;2073263;28;20777;-65
2022/05/31 02:52:46;;;;;;;10.43;3.27;;;;;;;19.58;98.86;101420.38;2073672;28;20181;-65
2022/05/31 02:53:47;;;;;;;10.27;3.33;;;;;;;18.98;99.05;101328.94;2073046;28;20247;-65
2022/05/31 02:54:47;;;;;;;8.73;3.17;;;;;;;19.59;99.19;101423.97;2081079;28;20251;-64
2022/05/31 02:55:48;;;;;;;7.03;3.70;;;;;;;19.41;99.07;101405.16;2080696;28;20181;-65
2022/05/31 02:56:48;;;;;;;6.87;3.40;;;;;;;19.60;98.75;101428.34;2073533;28;20178;-65
2022/05/31 02:57:49;;;;;;;7.67;3.10;;;;;;;19.63;98.65;101435.81;2073409;28;20335;-65
2022/05/31 02:58:49;;;;;;;7.13;3.03;;;;;;;19.38;98.70;101383.59;2073306;28;20549;-65
2022/05/31 02:59:50;;;;;;;7.80;3.60;;;;;;;19.69;98.69;101431.09;2073448;28;20181;-65
2022/05/31 03:00:50;;;;;;;6.47;3.23;;;;;;;19.63;98.94;101422.53;2072916;28;20205;-65
2022/05/31 03:01:51;;;;;;;6.90;3.33;;;;;;;18.80;98.67;101310.13;2080783;28;20185;-65
2022/05/31 03:02:52;;;;;;;6.73;2.93;;;;;;;19.48;99.00;101418.06;2081051;28;20230;-65
2022/05/31 03:03:53;;;;;;;7.70;3.67;;;;;;;19.70;99.13;101438.31;2073059;28;20411;-65
2022/05/31 03:04:53;;;;;;;9.07;3.20;;;;;;;19.39;99.13;101395.63;2073568;28;20181;-65
2022/05/31 03:05:54;;;;;;;5.57;3.37;;;;;;;19.34;99.26;101385.03;2073132;28;20271;-65
2022/05/31 03:07:01;;;;;;;7.07;3.27;;;;;;;19.71;99.33;101442.66;2064602;28;20171;-65
2022/05/31 03:08:03;;;;;;;4.77;3.13;;;;;;;19.72;99.37;101442.19;2065600;28;20173;-65
2022/05/31 03:09:05;;;;;;;5.23;3.37;;;;;;;19.69;99.59;101445.94;2073153;28;20937;-65
2022/05/31 03:10:06;;;;;;;5.97;3.20;;;;;;;19.76;99.32;101444.84;2073227;28;20509;-65
2022/05/31 03:11:12;;;;;;;7.90;3.60;;;;;;;18.94;99.63;101323.47;2073010;28;20421;-65
2022/05/31 03:12:17;;;;;;;8.17;3.40;;;;;;;19.47;99.39;101392.00;2073350;28;20249;-65
2022/05/31 03:13:23;;;;;;;8.43;3.10;;;;;;;19.81;99.33;101439.31;2073181;28;20426;-65
2022/05/31 03:14:29;;;;;;;8.30;3.53;;;;;;;19.84;99.42;101446.81;2073300;28;20419;-65
2022/05/31 03:15:32;;;;;;;8.17;3.30;;;;;;;19.87;99.48;101442.28;2073374;28;20423;-65
2022/05/31 03:16:37;;;;;;;4.87;3.33;;;;;;;19.87;99.43;101443.06;2073566;28;20456;-65
2022/05/31 03:17:43;;;;;;;8.57;3.60;;;;;;;19.73;99.22;101428.91;2073303;28;20408;-65
2022/05/31 03:18:54;;;;;;;6.93;3.27;;;;;;;19.87;99.55;101457.13;2073123;28;20899;-65
2022/05/31 03:20:21;;;;;;;7.77;3.47;;;;;;;19.73;99.74;101455.00;2073105;28;20408;-65
2022/05/31 03:21:26;;;;;;;9.17;3.60;;;;;;;19.82;99.81;101446.53;2058754;28;20446;-65
2022/05/31 03:22:31;;;;;;;6.90;3.80;;;;;;;19.89;99.69;101460.22;2065371;28;20989;-65
2022/05/31 03:23:39;;;;;;;8.53;3.27;;;;;;;19.92;99.61;101461.31;2072925;28;20512;-65
2022/05/31 03:25:02;;;;;;;4.80;2.97;;;;;;;19.92;99.83;101455.69;2073353;28;20417;-65
2022/05/31 03:26:06;;;;;;;7.00;3.67;;;;;;;19.98;99.65;101451.75;2064350;28;20438;-65
2022/05/31 03:27:09;;;;;;;10.50;3.30;;;;;;;20.00;100.00;101462.53;2064936;28;20431;-64
2022/05/31 03:28:11;;;;;;;6.03;3.33;;;;;;;19.60;99.92;101394.59;2072985;28;20892;-65
2022/05/31 03:29:12;;;;;;;9.33;3.40;;;;;;;19.97;99.94;101449.41;2064624;28;20537;-65
2022/05/31 03:30:13;;;;;;;6.43;2.97;;;;;;;20.04;99.63;101463.91;2064244;28;20423;-65
2022/05/31 03:31:14;;;;;;;3.87;2.90;;;;;;;19.92;99.63;101450.84;2073075;28;20810;-65
2022/05/31 03:32:15;;;;;;;7.80;3.43;;;;;;;20.05;99.66;101461.88;2073215;28;20477;-65
2022/05/31 03:33:16;;;;;;;5.53;3.50;;;;;;;20.03;99.81;101461.56;2072971;28;20169;-65
2022/05/31 03:34:17;;;;;;;5.37;3.10;;;;;;;20.10;99.42;101466.84;2073242;28;21015;-65
2022/05/31 03:35:18;;;;;;;5.10;3.23;;;;;;;20.11;98.88;101463.56;2073356;28;20199;-65
2022/05/31 03:36:18;;;;;;;7.63;3.70;;;;;;;20.19;98.42;101459.16;2072944;28;20262;-65
2022/05/31 03:37:19;;;;;;;6.03;3.07;;;;;;;20.17;98.20;101449.63;2080676;28;20626;-65
2022/05/31 03:38:19;;;;;;;7.60;3.30;;;;;;;20.22;97.93;101458.19;2080456;28;20174;-65
2022/05/31 03:39:20;;;;;;;6.90;3.40;;;;;;;19.70;97.73;101373.63;2064572;28;20609;-65
2022/05/31 03:41:39;;;;;;;9.10;3.63;;;;;;;19.89;97.79;101406.00;2066671;28;20176;-65
2022/05/31 03:42:40;;;;;;;7.43;3.57;;;;;;;20.30;98.05;101461.44;2073260;28;20418;-65
2022/05/31 03:43:42;;;;;;;8.57;3.33;;;;;;;20.28;98.01;101458.31;2072800;28;20538;-65
2022/05/31 03:44:43;;;;;;;4.43;3.30;;;;;;;19.91;97.96;101412.69;2073314;28;20174;-65
2022/05/31 03:45:44;;;;;;;6.83;3.13;;;;;;;20.09;98.54;101468.13;2072905;28;20912;-65
2022/05/31 03:46:47;;;;;;;6.70;3.47;;;;;;;20.16;99.20;101471.38;2073302;28;20180;-65
2022/05/31 03:47:47;;;;;;;5.70;3.27;;;;;;;20.13;99.35;101444.19;2073030;28;20698;-65
2022/05/31 03:48:48;;;;;;;7.20;3.80;;;;;;;20.26;99.48;101467.25;2073030;28;21273;-65
2022/05/31 03:49:48;;;;;;;5.83;3.27;;;;;;;20.25;99.42;101470.53;2080546;28;20271;-65
2022/05/31 03:51:00;;;;;;;6.67;3.30;;;;;;;20.33;99.64;101469.72;2079460;28;20270;-65
2022/05/31 03:52:01;;;;;;;7.00;3.20;;;;;;;21.09;98.27;101452.81;2073032;28;20176;-65
2022/05/31 03:53:01;;;;;;;6.33;3.20;;;;;;;21.47;95.94;101469.66;2073156;28;20966;-65
2022/05/31 03:54:02;;;;;;;8.10;3.20;;;;;;;21.43;94.93;101471.09;2072666;28;20882;-65
2022/05/31 03:55:03;;;;;;;8.27;3.47;;;;;;;21.35;94.12;101461.47;2073214;28;20198;-65
2022/05/31 03:56:06;;;;;;;6.77;3.37;;;;;;;21.24;94.06;101455.66;2072918;28;20180;-65
2022/05/31 03:57:12;;;;;;;11.27;3.40;;;;;;;21.04;94.44;101464.00;2073203;28;20459;-65
2022/05/31 03:58:13;;;;;;;5.93;3.27;;;;;;;20.98;94.25;101461.06;2072620;28;20412;-65
2022/05/31 03:59:13;;;;;;;7.03;3.07;;;;;;;20.84;94.82;101461.03;2073264;28;20501;-65
2022/05/31 04:00:14;;;;;;;5.33;3.07;;;;;;;20.73;95.54;101464.38;2072643;28;20197;-65
2022/05/31 04:01:15;;;;;;;8.27;3.70;;;;;;;20.30;96.09;101419.19;2072987;28;20187;-65
2022/05/31 04:02:16;;;;;;;6.63;3.60;;;;;;;20.59;96.46;101462.31;2072915;28;20423;-65
2022/05/31 04:03:17;;;;;;;7.10;3.20;;;;;;;20.14;96.97;101406.34;2072763;28;20669;-65
2022/05/31 04:04:17;;;;;;;11.30;3.67;;;;;;;20.62;97.72;101477.50;2072992;28;20212;-65
2022/05/31 04:05:18;;;;;;;6.57;3.20;;;;;;;20.05;97.57;101381.06;2073187;28;20428;-65
2022/05/31 04:06:18;;;;;;;5.43;3.00;;;;;;;20.59;98.34;101476.41;2072994;28;20255;-65
2022/05/31 04:07:18;;;;;;;5.77;3.30;;;;;;;20.21;98.55;101420.06;2080593;28;20593;-65
2022/05/31 04:08:20;;;;;;;10.70;3.37;;;;;;;20.50;98.79;101467.22;2080239;28;20184;-65
2022/05/31 04:09:20;;;;;;;7.20;3.43;;;;;;;20.50;98.77;101473.66;2073069;28;20208;-65
2022/05/31 04:10:21;;;;;;;10.53;3.23;;;;;;;19.96;98.98;101406.41;2072729;28;20435;-65
2022/05/31 04:11:22;;;;;;;5.37;3.07;;;;;;;20.51;99.16;101475.19;2072765;28;20714;-65
2022/05/31 04:12:22;;;;;;;7.00;3.17;;;;;;;20.53;99.35;101477.53;2080188;28;20243;-65
2022/05/31 04:13:23;;;;;;;9.90;3.80;;;;;;;20.61;99.40;101475.91;2080147;28;20263;-65
2022/05/31 04:14:23;;;;;;;4.77;3.43;;;;;;;20.61;99.62;101478.72;2072992;28;20225;-65
2022/05/31 04:15:24;;;;;;;6.23;3.20;;;;;;;20.58;99.34;101477.66;2072989;28;20221;-65
2022/05/31 04:16:26;;;;;;;6.73;3.70;;;;;;;20.50;99.68;101461.59;2072685;28;20716;-65
2022/05/31 04:17:27;;;;;;;6.70;3.17;;;;;;;20.29;99.73;101438.16;2064276;28;20697;-65
2022/05/31 04:18:28;;;;;;;9.17;3.47;;;;;;;20.66;99.91;101484.47;2063867;28;20821;-65
2022/05/31 04:19:29;;;;;;;7.67;3.63;;;;;;;20.70;99.69;101481.47;2072803;28;20188;-65
2022/05/31 04:20:30;;;;;;;5.17;3.30;;;;;;;20.21;99.26;101422.88;2063697;28;20263;-65
2022/05/31 04:21:30;;;;;;;5.67;3.63;;;;;;;20.36;98.90;101423.69;2063742;28;20441;-65
2022/05/31 04:22:32;;;;;;;7.27;3.63;;;;;;;20.86;99.21;101487.44;2072997;28;20481;-65
2022/05/31 04:24:54;;;;;;;9.03;3.87;;;;;;;20.98;98.75;101482.84;2073245;28;20399;-65
2022/05/31 04:26:05;;;;;;;9.73;3.73;;;;;;;20.96;98.08;101499.44;2072775;28;20453;-65
2022/05/31 04:27:06;;;;;;;6.70;3.50;;;;;;;20.98;97.46;101485.66;2072920;28;20995;-65
2022/05/31 04:28:06;;;;;;;8.53;3.40;;;;;;;21.07;97.67;101479.91;2072511;28;20497;-65
2022/05/31 04:29:07;;;;;;;5.83;3.10;;;;;;;20.86;97.67;101447.22;2063959;28;20519;-65
2022/05/31 04:30:08;;;;;;;9.60;3.60;;;;;;;21.16;97.58;101493.94;2063940;28;20235;-65
2022/05/31 04:31:09;;;;;;;6.40;3.30;;;;;;;20.73;97.67;101412.91;2064030;28;20590;-65
2022/05/31 04:32:11;;;;;;;8.00;4.10;;;;;;;21.26;97.13;101486.94;2064113;28;20481;-65
2022/05/31 04:33:12;;;;;;;9.70;3.73;;;;;;;21.30;96.61;101493.97;2063988;28;20428;-65
2022/05/31 04:34:12;;;;;;;16.23;5.27;;;;;;;21.35;96.13;101487.63;2063944;28;20476;-65
2022/05/31 04:35:12;;;;;;;8.00;4.17;;;;;;;21.33;95.88;101475.31;2073020;28;20180;-65
2022/05/31 04:36:15;;;;;;;11.80;5.00;;;;;;;21.40;95.75;101481.31;2072758;28;20188;-65
2022/05/31 04:37:16;;;;;;;9.20;4.20;;;;;;;21.20;95.61;101443.78;2073013;28;20188;-65
2022/05/31 04:38:16;;;;;;;7.27;3.30;;;;;;;21.47;94.99;101491.41;2063298;28;20429;-65
2022/05/31 04:39:17;;;;;;;8.47;3.90;;;;;;;21.50;94.41;101490.47;2064124;28;20181;-65
2022/05/31 04:40:17;;;;;;;7.90;3.70;;;;;;;21.15;93.96;101430.38;2063759;28;20193;-65
2022/05/31 04:41:22;;;;;;;8.07;3.47;;;;;;;21.58;93.47;101485.97;2072664;28;20241;-65
2022/05/31 04:42:23;;;;;;;9.73;4.10;;;;;;;21.62;93.00;101486.56;2072654;28;20172;-65
2022/05/31 04:43:24;;;;;;;8.10;4.00;;;;;;;21.43;92.27;101454.97;2072312;28;21004;-65
2022/05/31 04:44:25;;;;;;;6.67;3.37;;;;;;;21.44;91.88;101442.41;2072655;28;20185;-65
2022/05/31 04:45:26;;;;;;;7.27;2.83;;;;;;;21.40;91.39;101416.44;2080300;28;20173;-65
2022/05/31 04:46:29;;;;;;;8.07;3.33;;;;;;;21.12;91.13;101370.13;2071780;28;20440;-65
2022/05/31 04:47:30;;;;;;;9.23;3.47;;;;;;;21.85;90.65;101474.41;2063941;28;20484;-66
2022/05/31 04:48:30;;;;;;;9.73;3.50;;;;;;;21.93;90.68;101476.31;2072122;28;21101;-65
2022/05/31 04:49:31;;;;;;;8.63;3.70;;;;;;;21.94;90.33;101480.69;2072502;28;20184;-65
2022/05/31 04:50:31;;;;;;;13.60;3.80;;;;;;;21.14;89.71;101349.91;2071793;28;20174;-65
2022/05/31 04:51:32;;;;;;;6.47;3.20;;;;;;;21.78;89.12;101452.22;2072217;28;20307;-65
2022/05/31 04:52:33;;;;;;;7.23;3.20;;;;;;;21.83;88.88;101446.66;2063023;28;20186;-65
2022/05/31 04:53:33;;;;;;;5.53;2.93;;;;;;;21.69;88.80;101430.53;2068292;28;20273;-64
2022/05/31 04:54:34;;;;;;;7.37;3.47;;;;;;;22.01;88.79;101471.03;2078710;28;20643;-65
2022/05/31 04:55:34;;;;;;;6.97;3.80;;;;;;;21.96;88.84;101472.50;2072374;28;20222;-63
2022/05/31 04:56:35;;;;;;;6.70;3.43;;;;;;;21.66;88.83;101427.91;2062135;28;20190;-63
2022/05/31 04:57:36;;;;;;;6.87;3.27;;;;;;;21.77;88.40;101431.72;2061621;28;20281;-63
2022/05/31 04:58:37;;;;;;;6.57;3.03;;;;;;;22.10;87.82;101473.75;2059200;28;20189;-63